sensor_id;sensor_type;location;lat;lon;timestamp;temperature;humidity
17859;DHT22;35426;30.698;104.050;2023-11-19T00:02:09;12.10;99.90
17859;DHT22;35426;30.698;104.050;2023-11-19T00:04:44;12.30;99.90
17859;DHT22;35426;30.698;104.050;2023-11-19T00:07:19;12.20;99.90
17859;DHT22;35426;30.698;104.050;2023-11-19T00:10:04;12.30;99.90
17859;DHT22;35426;30.698;104.050;2023-11-19T00:12:45;12.40;99.90
17859;DHT22;35426;30.698;104.050;2023-11-19T00:15:22;12.50;99.90
17859;DHT22;35426;30.698;104.050;2023-11-19T00:17:59;12.40;99.90
17859;DHT22;35426;30.698;104.050;2023-11-19T00:20:39;12.40;99.90
17859;DHT22;35426;30.698;104.050;2023-11-19T00:23:15;12.50;99.90
17859;DHT22;35426;30.698;104.050;2023-11-19T00:25:50;12.80;99.90
17859;DHT22;35426;30.698;104.050;2023-11-19T00:28:26;13.00;99.90
17859;DHT22;35426;30.698;104.050;2023-11-19T00:31:05;13.10;99.90
17859;DHT22;35426;30.698;104.050;2023-11-19T00:33:42;13.10;99.90
17859;DHT22;35426;30.698;104.050;2023-11-19T00:36:25;13.00;99.90
17859;DHT22;35426;30.698;104.050;2023-11-19T00:38:59;13.30;99.90
17859;DHT22;35426;30.698;104.050;2023-11-19T00:41:34;13.50;99.90
17859;DHT22;35426;30.698;104.050;2023-11-19T00:44:11;13.60;99.90
17859;DHT22;35426;30.698;104.050;2023-11-19T00:46:45;13.80;99.90
17859;DHT22;35426;30.698;104.050;2023-11-19T00:49:19;14.20;99.90
17859;DHT22;35426;30.698;104.050;2023-11-19T00:51:53;14.10;99.90
17859;DHT22;35426;30.698;104.050;2023-11-19T00:54:30;14.00;99.90
17859;DHT22;35426;30.698;104.050;2023-11-19T00:57:07;14.40;99.90
17859;DHT22;35426;30.698;104.050;2023-11-19T00:59:45;14.40;99.90
17859;DHT22;35426;30.698;104.050;2023-11-19T01:02:19;14.20;99.90
17859;DHT22;35426;30.698;104.050;2023-11-19T01:04:53;14.50;99.90
17859;DHT22;35426;30.698;104.050;2023-11-19T01:07:29;14.80;99.90
17859;DHT22;35426;30.698;104.050;2023-11-19T01:10:05;14.90;99.90
17859;DHT22;35426;30.698;104.050;2023-11-19T01:12:40;15.60;99.90
17859;DHT22;35426;30.698;104.050;2023-11-19T01:15:18;16.00;99.90
17859;DHT22;35426;30.698;104.050;2023-11-19T01:17:54;16.00;99.90
17859;DHT22;35426;30.698;104.050;2023-11-19T01:20:28;16.30;99.90
17859;DHT22;35426;30.698;104.050;2023-11-19T01:23:04;16.50;99.90
17859;DHT22;35426;30.698;104.050;2023-11-19T01:25:39;16.60;99.90
17859;DHT22;35426;30.698;104.050;2023-11-19T01:28:14;16.50;99.90
17859;DHT22;35426;30.698;104.050;2023-11-19T01:30:51;16.70;99.90
17859;DHT22;35426;30.698;104.050;2023-11-19T01:33:26;16.90;99.90
17859;DHT22;35426;30.698;104.050;2023-11-19T01:36:00;16.90;99.90
17859;DHT22;35426;30.698;104.050;2023-11-19T01:38:36;17.00;99.90
17859;DHT22;35426;30.698;104.050;2023-11-19T01:41:10;17.20;99.90
17859;DHT22;35426;30.698;104.050;2023-11-19T01:43:44;17.50;99.90
17859;DHT22;35426;30.698;104.050;2023-11-19T01:46:20;17.60;99.90
17859;DHT22;35426;30.698;104.050;2023-11-19T01:48:55;17.80;99.90
17859;DHT22;35426;30.698;104.050;2023-11-19T01:51:30;17.70;99.90
17859;DHT22;35426;30.698;104.050;2023-11-19T01:54:06;17.80;99.90
17859;DHT22;35426;30.698;104.050;2023-11-19T01:56:41;18.00;99.90
17859;DHT22;35426;30.698;104.050;2023-11-19T01:59:17;18.30;99.90
17859;DHT22;35426;30.698;104.050;2023-11-19T02:02:00;18.30;99.90
17859;DHT22;35426;30.698;104.050;2023-11-19T02:04:35;18.00;99.90
17859;DHT22;35426;30.698;104.050;2023-11-19T02:07:13;17.50;99.90
17859;DHT22;35426;30.698;104.050;2023-11-19T02:09:49;17.90;99.90
17859;DHT22;35426;30.698;104.050;2023-11-19T02:12:24;17.80;99.90
17859;DHT22;35426;30.698;104.050;2023-11-19T02:14:59;18.20;99.90
17859;DHT22;35426;30.698;104.050;2023-11-19T02:17:36;18.10;99.90
17859;DHT22;35426;30.698;104.050;2023-11-19T02:20:11;18.20;99.90
17859;DHT22;35426;30.698;104.050;2023-11-19T02:22:46;18.50;99.90
17859;DHT22;35426;30.698;104.050;2023-11-19T02:25:28;18.90;99.90
17859;DHT22;35426;30.698;104.050;2023-11-19T02:28:06;19.00;99.90
17859;DHT22;35426;30.698;104.050;2023-11-19T02:30:42;18.60;99.90
17859;DHT22;35426;30.698;104.050;2023-11-19T02:33:17;18.60;99.90
17859;DHT22;35426;30.698;104.050;2023-11-19T02:35:50;18.70;99.90
17859;DHT22;35426;30.698;104.050;2023-11-19T02:38:24;18.80;99.90
17859;DHT22;35426;30.698;104.050;2023-11-19T02:40:58;19.00;99.90
17859;DHT22;35426;30.698;104.050;2023-11-19T02:43:36;19.00;99.90
17859;DHT22;35426;30.698;104.050;2023-11-19T02:46:10;19.20;99.90
17859;DHT22;35426;30.698;104.050;2023-11-19T02:48:45;19.40;99.90
17859;DHT22;35426;30.698;104.050;2023-11-19T02:51:19;18.90;99.90
17859;DHT22;35426;30.698;104.050;2023-11-19T02:53:54;19.00;99.90
17859;DHT22;35426;30.698;104.050;2023-11-19T02:56:28;18.50;99.90
17859;DHT22;35426;30.698;104.050;2023-11-19T02:59:08;18.80;99.90
17859;DHT22;35426;30.698;104.050;2023-11-19T03:01:49;19.20;99.90
17859;DHT22;35426;30.698;104.050;2023-11-19T03:04:24;19.40;99.90
17859;DHT22;35426;30.698;104.050;2023-11-19T03:06:58;19.60;99.90
17859;DHT22;35426;30.698;104.050;2023-11-19T03:09:32;19.30;99.90
17859;DHT22;35426;30.698;104.050;2023-11-19T03:12:07;19.30;99.90
17859;DHT22;35426;30.698;104.050;2023-11-19T03:14:50;19.50;99.90
17859;DHT22;35426;30.698;104.050;2023-11-19T03:17:24;19.40;99.90
17859;DHT22;35426;30.698;104.050;2023-11-19T03:19:58;19.40;99.90
17859;DHT22;35426;30.698;104.050;2023-11-19T03:22:34;19.20;99.90
17859;DHT22;35426;30.698;104.050;2023-11-19T03:25:09;19.30;99.90
17859;DHT22;35426;30.698;104.050;2023-11-19T03:27:44;19.10;99.90
17859;DHT22;35426;30.698;104.050;2023-11-19T03:30:21;19.30;99.90
17859;DHT22;35426;30.698;104.050;2023-11-19T03:33:03;19.40;99.90
17859;DHT22;35426;30.698;104.050;2023-11-19T03:35:39;18.80;99.90
17859;DHT22;35426;30.698;104.050;2023-11-19T03:38:14;18.90;99.90
17859;DHT22;35426;30.698;104.050;2023-11-19T03:40:48;19.00;99.90
17859;DHT22;35426;30.698;104.050;2023-11-19T03:43:23;19.10;99.90
17859;DHT22;35426;30.698;104.050;2023-11-19T03:45:59;18.80;99.90
17859;DHT22;35426;30.698;104.050;2023-11-19T03:48:37;18.40;99.90
17859;DHT22;35426;30.698;104.050;2023-11-19T03:51:11;18.50;99.90
17859;DHT22;35426;30.698;104.050;2023-11-19T03:53:48;18.50;99.90
17859;DHT22;35426;30.698;104.050;2023-11-19T03:56:25;18.50;99.90
17859;DHT22;35426;30.698;104.050;2023-11-19T03:59:00;17.90;99.90
17859;DHT22;35426;30.698;104.050;2023-11-19T04:01:36;17.90;99.90
17859;DHT22;35426;30.698;104.050;2023-11-19T04:04:11;18.10;99.90
17859;DHT22;35426;30.698;104.050;2023-11-19T04:06:45;18.00;99.90
17859;DHT22;35426;30.698;104.050;2023-11-19T04:09:20;17.90;99.90
17859;DHT22;35426;30.698;104.050;2023-11-19T04:11:55;18.00;99.90
17859;DHT22;35426;30.698;104.050;2023-11-19T04:14:28;18.40;99.90
17859;DHT22;35426;30.698;104.050;2023-11-19T04:17:05;18.50;99.90
17859;DHT22;35426;30.698;104.050;2023-11-19T04:19:39;18.20;99.90
17859;DHT22;35426;30.698;104.050;2023-11-19T04:22:16;18.20;99.90
17859;DHT22;35426;30.698;104.050;2023-11-19T04:24:50;18.30;99.90
17859;DHT22;35426;30.698;104.050;2023-11-19T04:27:24;18.30;99.90
17859;DHT22;35426;30.698;104.050;2023-11-19T04:29:59;18.30;99.90
17859;DHT22;35426;30.698;104.050;2023-11-19T04:32:37;18.10;99.90
17859;DHT22;35426;30.698;104.050;2023-11-19T04:35:11;18.20;99.90
17859;DHT22;35426;30.698;104.050;2023-11-19T04:37:46;18.50;99.90
17859;DHT22;35426;30.698;104.050;2023-11-19T04:40:21;18.70;99.90
17859;DHT22;35426;30.698;104.050;2023-11-19T04:42:55;18.40;99.90
17859;DHT22;35426;30.698;104.050;2023-11-19T04:45:29;18.10;99.90
17859;DHT22;35426;30.698;104.050;2023-11-19T04:48:09;18.20;99.90
17859;DHT22;35426;30.698;104.050;2023-11-19T04:50:44;18.20;99.90
17859;DHT22;35426;30.698;104.050;2023-11-19T04:53:19;18.60;99.90
17859;DHT22;35426;30.698;104.050;2023-11-19T04:55:53;18.70;99.90
17859;DHT22;35426;30.698;104.050;2023-11-19T04:58:30;18.80;99.90
17859;DHT22;35426;30.698;104.050;2023-11-19T05:01:06;18.50;99.90
17859;DHT22;35426;30.698;104.050;2023-11-19T05:03:42;18.50;99.90
17859;DHT22;35426;30.698;104.050;2023-11-19T05:06:17;18.40;99.90
17859;DHT22;35426;30.698;104.050;2023-11-19T05:08:51;18.20;99.90
17859;DHT22;35426;30.698;104.050;2023-11-19T05:11:25;18.40;99.90
17859;DHT22;35426;30.698;104.050;2023-11-19T05:13:59;18.60;99.90
17859;DHT22;35426;30.698;104.050;2023-11-19T05:16:35;18.60;99.90
17859;DHT22;35426;30.698;104.050;2023-11-19T05:19:11;18.80;99.90
17859;DHT22;35426;30.698;104.050;2023-11-19T05:21:45;19.00;99.90
17859;DHT22;35426;30.698;104.050;2023-11-19T05:24:20;19.00;99.90
17859;DHT22;35426;30.698;104.050;2023-11-19T05:26:55;18.90;99.90
17859;DHT22;35426;30.698;104.050;2023-11-19T05:29:29;18.80;99.90
17859;DHT22;35426;30.698;104.050;2023-11-19T05:32:03;18.80;99.90
17859;DHT22;35426;30.698;104.050;2023-11-19T05:34:41;18.80;99.90
17859;DHT22;35426;30.698;104.050;2023-11-19T05:37:17;18.70;99.90
17859;DHT22;35426;30.698;104.050;2023-11-19T05:39:53;18.80;99.90
17859;DHT22;35426;30.698;104.050;2023-11-19T05:42:27;18.80;99.90
17859;DHT22;35426;30.698;104.050;2023-11-19T05:45:01;18.80;99.90
17859;DHT22;35426;30.698;104.050;2023-11-19T05:47:36;18.60;99.90
17859;DHT22;35426;30.698;104.050;2023-11-19T05:50:13;18.30;99.90
17859;DHT22;35426;30.698;104.050;2023-11-19T05:52:48;18.50;99.90
17859;DHT22;35426;30.698;104.050;2023-11-19T05:55:24;18.70;99.90
17859;DHT22;35426;30.698;104.050;2023-11-19T05:57:59;18.80;99.90
17859;DHT22;35426;30.698;104.050;2023-11-19T06:00:33;19.00;99.90
17859;DHT22;35426;30.698;104.050;2023-11-19T06:03:09;19.20;99.90
17859;DHT22;35426;30.698;104.050;2023-11-19T06:05:49;19.20;99.90
17859;DHT22;35426;30.698;104.050;2023-11-19T06:08:24;18.90;99.90
17859;DHT22;35426;30.698;104.050;2023-11-19T06:10:59;18.70;99.90
17859;DHT22;35426;30.698;104.050;2023-11-19T06:13:33;18.50;99.90
17859;DHT22;35426;30.698;104.050;2023-11-19T06:16:10;18.50;99.90
17859;DHT22;35426;30.698;104.050;2023-11-19T06:18:46;18.30;99.90
17859;DHT22;35426;30.698;104.050;2023-11-19T06:21:23;18.10;99.90
17859;DHT22;35426;30.698;104.050;2023-11-19T06:23:58;18.00;99.90
17859;DHT22;35426;30.698;104.050;2023-11-19T06:26:31;17.90;99.90
17859;DHT22;35426;30.698;104.050;2023-11-19T06:29:06;17.70;99.90
17859;DHT22;35426;30.698;104.050;2023-11-19T06:31:42;17.80;99.90
17859;DHT22;35426;30.698;104.050;2023-11-19T06:34:19;17.50;99.90
17859;DHT22;35426;30.698;104.050;2023-11-19T06:36:55;17.60;99.90
17859;DHT22;35426;30.698;104.050;2023-11-19T06:39:32;17.80;99.90
17859;DHT22;35426;30.698;104.050;2023-11-19T06:42:06;18.10;99.90
17859;DHT22;35426;30.698;104.050;2023-11-19T06:44:41;18.50;99.90
17859;DHT22;35426;30.698;104.050;2023-11-19T06:47:15;18.60;99.90
17859;DHT22;35426;30.698;104.050;2023-11-19T06:49:49;18.50;99.90
17859;DHT22;35426;30.698;104.050;2023-11-19T06:52:25;18.60;99.90
17859;DHT22;35426;30.698;104.050;2023-11-19T06:54:59;18.70;99.90
17859;DHT22;35426;30.698;104.050;2023-11-19T06:57:37;18.80;99.90
17859;DHT22;35426;30.698;104.050;2023-11-19T07:00:12;18.60;99.90
17859;DHT22;35426;30.698;104.050;2023-11-19T07:02:46;18.40;99.90
17859;DHT22;35426;30.698;104.050;2023-11-19T07:05:21;18.20;99.90
17859;DHT22;35426;30.698;104.050;2023-11-19T07:07:57;18.40;99.90
17859;DHT22;35426;30.698;104.050;2023-11-19T07:10:31;18.50;99.90
17859;DHT22;35426;30.698;104.050;2023-11-19T07:13:05;18.30;99.90
17859;DHT22;35426;30.698;104.050;2023-11-19T07:15:39;18.20;99.90
17859;DHT22;35426;30.698;104.050;2023-11-19T07:18:13;18.30;99.90
17859;DHT22;35426;30.698;104.050;2023-11-19T07:20:47;18.60;99.90
17859;DHT22;35426;30.698;104.050;2023-11-19T07:23:25;18.50;99.90
17859;DHT22;35426;30.698;104.050;2023-11-19T07:26:00;18.50;99.90
17859;DHT22;35426;30.698;104.050;2023-11-19T07:28:34;18.50;99.90
17859;DHT22;35426;30.698;104.050;2023-11-19T07:31:09;18.40;99.90
17859;DHT22;35426;30.698;104.050;2023-11-19T07:33:43;18.20;99.90
17859;DHT22;35426;30.698;104.050;2023-11-19T07:36:18;18.40;99.90
17859;DHT22;35426;30.698;104.050;2023-11-19T07:38:54;18.50;99.90
17859;DHT22;35426;30.698;104.050;2023-11-19T07:41:30;18.60;99.90
17859;DHT22;35426;30.698;104.050;2023-11-19T07:44:07;18.60;99.90
17859;DHT22;35426;30.698;104.050;2023-11-19T07:46:41;18.60;99.90
17859;DHT22;35426;30.698;104.050;2023-11-19T07:49:16;18.60;99.90
17859;DHT22;35426;30.698;104.050;2023-11-19T07:51:50;18.60;99.90
17859;DHT22;35426;30.698;104.050;2023-11-19T07:54:26;18.50;99.90
17859;DHT22;35426;30.698;104.050;2023-11-19T07:57:01;18.50;99.90
17859;DHT22;35426;30.698;104.050;2023-11-19T07:59:35;18.50;99.90
17859;DHT22;35426;30.698;104.050;2023-11-19T08:02:09;18.60;99.90
17859;DHT22;35426;30.698;104.050;2023-11-19T08:04:43;18.40;99.90
17859;DHT22;35426;30.698;104.050;2023-11-19T08:07:17;18.40;99.90
17859;DHT22;35426;30.698;104.050;2023-11-19T08:09:53;18.40;99.90
17859;DHT22;35426;30.698;104.050;2023-11-19T08:12:28;18.30;99.90
17859;DHT22;35426;30.698;104.050;2023-11-19T08:15:03;18.30;99.90
17859;DHT22;35426;30.698;104.050;2023-11-19T08:17:38;18.40;99.90
17859;DHT22;35426;30.698;104.050;2023-11-19T08:20:12;18.50;99.90
17859;DHT22;35426;30.698;104.050;2023-11-19T08:22:48;18.40;99.90
17859;DHT22;35426;30.698;104.050;2023-11-19T08:25:24;18.30;99.90
17859;DHT22;35426;30.698;104.050;2023-11-19T08:27:59;18.30;99.90
17859;DHT22;35426;30.698;104.050;2023-11-19T08:30:35;18.40;99.90
17859;DHT22;35426;30.698;104.050;2023-11-19T08:33:09;18.40;99.90
17859;DHT22;35426;30.698;104.050;2023-11-19T08:35:44;18.50;99.90
17859;DHT22;35426;30.698;104.050;2023-11-19T08:38:18;18.20;99.90
17859;DHT22;35426;30.698;104.050;2023-11-19T08:41:00;18.00;99.90
17859;DHT22;35426;30.698;104.050;2023-11-19T08:43:34;18.00;99.90
17859;DHT22;35426;30.698;104.050;2023-11-19T08:46:11;17.90;99.90
17859;DHT22;35426;30.698;104.050;2023-11-19T08:48:45;18.00;99.90
17859;DHT22;35426;30.698;104.050;2023-11-19T08:51:19;18.00;99.90
17859;DHT22;35426;30.698;104.050;2023-11-19T08:53:53;18.00;99.90
17859;DHT22;35426;30.698;104.050;2023-11-19T08:56:30;17.90;99.90
17859;DHT22;35426;30.698;104.050;2023-11-19T08:59:06;17.80;99.90
17859;DHT22;35426;30.698;104.050;2023-11-19T09:01:40;17.70;99.90
17859;DHT22;35426;30.698;104.050;2023-11-19T09:04:14;17.60;99.90
17859;DHT22;35426;30.698;104.050;2023-11-19T09:06:48;17.50;99.90
17859;DHT22;35426;30.698;104.050;2023-11-19T09:09:21;17.50;99.90
17859;DHT22;35426;30.698;104.050;2023-11-19T09:11:58;17.60;99.90
17859;DHT22;35426;30.698;104.050;2023-11-19T09:14:32;17.70;99.90
17859;DHT22;35426;30.698;104.050;2023-11-19T09:17:06;17.70;99.90
17859;DHT22;35426;30.698;104.050;2023-11-19T09:19:40;17.60;99.90
17859;DHT22;35426;30.698;104.050;2023-11-19T09:22:14;17.50;99.90
17859;DHT22;35426;30.698;104.050;2023-11-19T09:24:49;17.50;99.90
17859;DHT22;35426;30.698;104.050;2023-11-19T09:27:25;17.50;99.90
17859;DHT22;35426;30.698;104.050;2023-11-19T09:29:58;17.50;99.90
17859;DHT22;35426;30.698;104.050;2023-11-19T09:32:34;17.50;99.90
17859;DHT22;35426;30.698;104.050;2023-11-19T09:35:09;17.50;99.90
17859;DHT22;35426;30.698;104.050;2023-11-19T09:37:46;17.40;99.90
17859;DHT22;35426;30.698;104.050;2023-11-19T09:40:21;17.30;99.90
17859;DHT22;35426;30.698;104.050;2023-11-19T09:42:59;17.40;99.90
17859;DHT22;35426;30.698;104.050;2023-11-19T09:45:36;17.30;99.90
17859;DHT22;35426;30.698;104.050;2023-11-19T09:48:13;17.30;99.90
17859;DHT22;35426;30.698;104.050;2023-11-19T09:50:48;17.30;99.90
17859;DHT22;35426;30.698;104.050;2023-11-19T09:53:24;17.30;99.90
17859;DHT22;35426;30.698;104.050;2023-11-19T09:56:01;17.30;99.90
17859;DHT22;35426;30.698;104.050;2023-11-19T09:58:38;17.40;99.90
17859;DHT22;35426;30.698;104.050;2023-11-19T10:01:12;17.30;99.90
17859;DHT22;35426;30.698;104.050;2023-11-19T10:03:57;17.10;99.90
17859;DHT22;35426;30.698;104.050;2023-11-19T10:06:31;17.20;99.90
17859;DHT22;35426;30.698;104.050;2023-11-19T10:09:05;17.20;99.90
17859;DHT22;35426;30.698;104.050;2023-11-19T10:11:41;17.10;99.90
17859;DHT22;35426;30.698;104.050;2023-11-19T10:14:17;17.10;99.90
17859;DHT22;35426;30.698;104.050;2023-11-19T10:16:54;17.10;99.90
17859;DHT22;35426;30.698;104.050;2023-11-19T10:19:29;17.00;99.90
17859;DHT22;35426;30.698;104.050;2023-11-19T10:22:08;17.00;99.90
17859;DHT22;35426;30.698;104.050;2023-11-19T10:24:42;16.90;99.90
17859;DHT22;35426;30.698;104.050;2023-11-19T10:27:25;16.90;99.90
17859;DHT22;35426;30.698;104.050;2023-11-19T10:30:04;16.80;99.90
17859;DHT22;35426;30.698;104.050;2023-11-19T10:32:40;16.90;99.90
17859;DHT22;35426;30.698;104.050;2023-11-19T10:35:14;16.90;99.90
17859;DHT22;35426;30.698;104.050;2023-11-19T10:37:49;16.90;99.90
17859;DHT22;35426;30.698;104.050;2023-11-19T10:40:23;16.80;99.90
17859;DHT22;35426;30.698;104.050;2023-11-19T10:43:03;16.80;99.90
17859;DHT22;35426;30.698;104.050;2023-11-19T10:45:41;16.70;99.90
17859;DHT22;35426;30.698;104.050;2023-11-19T10:48:15;16.80;99.90
17859;DHT22;35426;30.698;104.050;2023-11-19T10:50:54;16.70;99.90
17859;DHT22;35426;30.698;104.050;2023-11-19T10:53:30;16.70;99.90
17859;DHT22;35426;30.698;104.050;2023-11-19T10:56:09;16.70;99.90
17859;DHT22;35426;30.698;104.050;2023-11-19T10:58:47;16.80;99.90
17859;DHT22;35426;30.698;104.050;2023-11-19T11:01:34;16.70;99.90
17859;DHT22;35426;30.698;104.050;2023-11-19T11:04:14;16.70;99.90
17859;DHT22;35426;30.698;104.050;2023-11-19T11:06:53;16.70;99.90
17859;DHT22;35426;30.698;104.050;2023-11-19T11:09:31;16.70;99.90
17859;DHT22;35426;30.698;104.050;2023-11-19T11:12:07;16.60;99.90
17859;DHT22;35426;30.698;104.050;2023-11-19T11:14:45;16.60;99.90
17859;DHT22;35426;30.698;104.050;2023-11-19T11:17:25;16.50;99.90
17859;DHT22;35426;30.698;104.050;2023-11-19T11:20:03;16.50;99.90
17859;DHT22;35426;30.698;104.050;2023-11-19T11:22:44;16.60;99.90
17859;DHT22;35426;30.698;104.050;2023-11-19T11:25:33;16.50;99.90
17859;DHT22;35426;30.698;104.050;2023-11-19T11:28:19;16.50;99.90
17859;DHT22;35426;30.698;104.050;2023-11-19T11:31:08;16.60;99.90
17859;DHT22;35426;30.698;104.050;2023-11-19T11:36:53;16.40;99.90
17859;DHT22;35426;30.698;104.050;2023-11-19T11:39:29;16.40;99.90
17859;DHT22;35426;30.698;104.050;2023-11-19T11:42:34;16.40;99.90
17859;DHT22;35426;30.698;104.050;2023-11-19T11:45:15;16.40;99.90
17859;DHT22;35426;30.698;104.050;2023-11-19T11:48:10;16.40;99.90
17859;DHT22;35426;30.698;104.050;2023-11-19T11:50:52;16.40;99.90
17859;DHT22;35426;30.698;104.050;2023-11-19T11:53:27;16.40;99.90
17859;DHT22;35426;30.698;104.050;2023-11-19T11:56:04;16.40;99.90
17859;DHT22;35426;30.698;104.050;2023-11-19T11:58:39;16.40;99.90
17859;DHT22;35426;30.698;104.050;2023-11-19T12:01:16;16.40;99.90
17859;DHT22;35426;30.698;104.050;2023-11-19T12:03:52;16.40;99.90
17859;DHT22;35426;30.698;104.050;2023-11-19T12:06:32;16.30;99.90
17859;DHT22;35426;30.698;104.050;2023-11-19T12:09:06;16.30;99.90
17859;DHT22;35426;30.698;104.050;2023-11-19T12:11:48;16.30;99.90
17859;DHT22;35426;30.698;104.050;2023-11-19T12:17:55;16.30;99.90
17859;DHT22;35426;30.698;104.050;2023-11-19T12:20:34;16.30;99.90
17859;DHT22;35426;30.698;104.050;2023-11-19T12:23:15;16.30;99.90
17859;DHT22;35426;30.698;104.050;2023-11-19T12:25:49;16.40;99.90
17859;DHT22;35426;30.698;104.050;2023-11-19T12:28:24;16.40;99.90
17859;DHT22;35426;30.698;104.050;2023-11-19T12:31:09;16.30;99.90
17859;DHT22;35426;30.698;104.050;2023-11-19T12:33:44;16.30;99.90
17859;DHT22;35426;30.698;104.050;2023-11-19T12:36:19;16.30;99.90
17859;DHT22;35426;30.698;104.050;2023-11-19T12:38:57;16.30;99.90
17859;DHT22;35426;30.698;104.050;2023-11-19T12:41:31;16.30;99.90
17859;DHT22;35426;30.698;104.050;2023-11-19T12:44:12;16.30;99.90
17859;DHT22;35426;30.698;104.050;2023-11-19T12:46:59;16.30;99.90
17859;DHT22;35426;30.698;104.050;2023-11-19T12:49:34;16.30;99.90
17859;DHT22;35426;30.698;104.050;2023-11-19T12:52:15;16.30;99.90
17859;DHT22;35426;30.698;104.050;2023-11-19T12:54:51;16.30;99.90
17859;DHT22;35426;30.698;104.050;2023-11-19T12:57:38;16.30;99.90
17859;DHT22;35426;30.698;104.050;2023-11-19T13:00:20;16.30;99.90
17859;DHT22;35426;30.698;104.050;2023-11-19T13:02:55;16.40;99.90
17859;DHT22;35426;30.698;104.050;2023-11-19T13:05:30;16.40;99.90
17859;DHT22;35426;30.698;104.050;2023-11-19T13:08:06;16.40;99.90
17859;DHT22;35426;30.698;104.050;2023-11-19T13:10:53;16.20;99.90
17859;DHT22;35426;30.698;104.050;2023-11-19T13:13:27;16.30;99.90
17859;DHT22;35426;30.698;104.050;2023-11-19T13:16:05;16.20;99.90
17859;DHT22;35426;30.698;104.050;2023-11-19T13:18:40;16.20;99.90
17859;DHT22;35426;30.698;104.050;2023-11-19T13:21:14;16.20;99.90
17859;DHT22;35426;30.698;104.050;2023-11-19T13:23:49;16.30;99.90
17859;DHT22;35426;30.698;104.050;2023-11-19T13:26:25;16.30;99.90
17859;DHT22;35426;30.698;104.050;2023-11-19T13:28:59;16.20;99.90
17859;DHT22;35426;30.698;104.050;2023-11-19T13:31:34;16.20;99.90
17859;DHT22;35426;30.698;104.050;2023-11-19T13:34:09;16.20;99.90
17859;DHT22;35426;30.698;104.050;2023-11-19T13:36:44;16.20;99.90
17859;DHT22;35426;30.698;104.050;2023-11-19T13:39:18;16.20;99.90
17859;DHT22;35426;30.698;104.050;2023-11-19T13:41:57;16.20;99.90
17859;DHT22;35426;30.698;104.050;2023-11-19T13:44:35;16.20;99.90
17859;DHT22;35426;30.698;104.050;2023-11-19T13:47:10;16.20;99.90
17859;DHT22;35426;30.698;104.050;2023-11-19T13:49:46;16.10;99.90
17859;DHT22;35426;30.698;104.050;2023-11-19T13:52:21;16.20;99.90
17859;DHT22;35426;30.698;104.050;2023-11-19T13:54:55;16.10;99.90
17859;DHT22;35426;30.698;104.050;2023-11-19T13:57:33;16.20;99.90
17859;DHT22;35426;30.698;104.050;2023-11-19T14:00:09;16.20;99.90
17859;DHT22;35426;30.698;104.050;2023-11-19T14:02:44;16.10;99.90
17859;DHT22;35426;30.698;104.050;2023-11-19T14:05:19;16.10;99.90
17859;DHT22;35426;30.698;104.050;2023-11-19T14:07:58;16.20;99.90
17859;DHT22;35426;30.698;104.050;2023-11-19T14:10:38;16.30;99.90
17859;DHT22;35426;30.698;104.050;2023-11-19T14:13:17;16.20;99.90
17859;DHT22;35426;30.698;104.050;2023-11-19T14:15:51;16.20;99.90
17859;DHT22;35426;30.698;104.050;2023-11-19T14:18:26;16.20;99.90
17859;DHT22;35426;30.698;104.050;2023-11-19T14:21:00;16.20;99.90
17859;DHT22;35426;30.698;104.050;2023-11-19T14:23:35;16.20;99.90
17859;DHT22;35426;30.698;104.050;2023-11-19T14:26:10;16.20;99.90
17859;DHT22;35426;30.698;104.050;2023-11-19T14:28:49;16.20;99.90
17859;DHT22;35426;30.698;104.050;2023-11-19T14:31:28;16.20;99.90
17859;DHT22;35426;30.698;104.050;2023-11-19T14:34:04;16.20;99.90
17859;DHT22;35426;30.698;104.050;2023-11-19T14:36:40;16.20;99.90
17859;DHT22;35426;30.698;104.050;2023-11-19T14:39:15;16.20;99.90
17859;DHT22;35426;30.698;104.050;2023-11-19T14:41:53;16.20;99.90
17859;DHT22;35426;30.698;104.050;2023-11-19T14:44:32;16.30;99.90
17859;DHT22;35426;30.698;104.050;2023-11-19T14:47:07;16.30;99.90
17859;DHT22;35426;30.698;104.050;2023-11-19T14:49:42;16.10;99.90
17859;DHT22;35426;30.698;104.050;2023-11-19T14:52:16;16.00;99.90
17859;DHT22;35426;30.698;104.050;2023-11-19T14:54:51;16.10;99.90
17859;DHT22;35426;30.698;104.050;2023-11-19T14:57:29;16.20;99.90
17859;DHT22;35426;30.698;104.050;2023-11-19T15:00:07;16.20;99.90
17859;DHT22;35426;30.698;104.050;2023-11-19T15:02:44;16.30;99.90
17859;DHT22;35426;30.698;104.050;2023-11-19T15:05:21;16.20;99.90
17859;DHT22;35426;30.698;104.050;2023-11-19T15:07:58;16.20;99.90
17859;DHT22;35426;30.698;104.050;2023-11-19T15:10:34;16.30;99.90
17859;DHT22;35426;30.698;104.050;2023-11-19T15:13:09;16.30;99.90
17859;DHT22;35426;30.698;104.050;2023-11-19T15:15:45;16.20;99.90
17859;DHT22;35426;30.698;104.050;2023-11-19T15:18:19;16.30;99.90
17859;DHT22;35426;30.698;104.050;2023-11-19T15:20:58;16.20;99.90
17859;DHT22;35426;30.698;104.050;2023-11-19T15:23:32;16.10;99.90
17859;DHT22;35426;30.698;104.050;2023-11-19T15:26:07;16.10;99.90
17859;DHT22;35426;30.698;104.050;2023-11-19T15:28:44;16.10;99.90
17859;DHT22;35426;30.698;104.050;2023-11-19T15:31:22;16.10;99.90
17859;DHT22;35426;30.698;104.050;2023-11-19T15:33:56;16.20;99.90
17859;DHT22;35426;30.698;104.050;2023-11-19T15:36:31;16.20;99.90
17859;DHT22;35426;30.698;104.050;2023-11-19T15:39:07;16.10;99.90
17859;DHT22;35426;30.698;104.050;2023-11-19T15:41:41;16.20;99.90
17859;DHT22;35426;30.698;104.050;2023-11-19T15:44:17;16.20;99.90
17859;DHT22;35426;30.698;104.050;2023-11-19T15:46:54;16.20;99.90
17859;DHT22;35426;30.698;104.050;2023-11-19T15:49:28;16.20;99.90
17859;DHT22;35426;30.698;104.050;2023-11-19T15:52:03;16.10;99.90
17859;DHT22;35426;30.698;104.050;2023-11-19T15:54:38;16.10;99.90
17859;DHT22;35426;30.698;104.050;2023-11-19T15:57:12;16.10;99.90
17859;DHT22;35426;30.698;104.050;2023-11-19T15:59:48;16.20;99.90
17859;DHT22;35426;30.698;104.050;2023-11-19T16:02:25;16.10;99.90
17859;DHT22;35426;30.698;104.050;2023-11-19T16:05:00;16.10;99.90